Terminal Aerodrome Forecast
Issued by NWS Bismarck, ND

Home | Current Version | Previous Version | Text Only | Print | Product List | Glossary On
Versions: 1 2 3 4 5 6 7 8 9 10 11 12 13 14 15 16 17 18 19 20
000
FTUS43 KBIS 011700 RRA
TAFISN
TAF
KISN 011745Z 0118/0218 29020G30KT P6SM BKN020
     FM012200 30015KT P6SM BKN040
     FM020300 28005KT P6SM SCT050=

USA.gov is the U.S. government's official web portal to all federal, state and local government web resources and services.